FNBG/BUG METAR and TAF weather

Enter ICAO airport designator
Station Type Date Time Source
FNBG METAR 2019/02/22 14:00 UTC NOAA

FNBG 221400Z 32008KT 9999 SCT020 BKN120 29/23 Q1012


Station Type Date Time Source
FNBG Decoded METAR 2019/02/22 14:00 UTC NOAA

Monbaca Benguela , Angola (FNBG) 12-35S 013-25E 4M
Feb 22, 2019 - 09:00 AM EST / 2019.02.22 1400 UTC
Wind: from the NW (320 degrees) at 9 MPH (8 KT):0
Visibility: greater than 7 mile(s):0
Sky conditions: mostly cloudy
Temperature: 84 F (29 C)
Dew Point: 73 F (23 C)
Relative Humidity: 70%
Pressure (altimeter): 29.88 in. Hg (1012 hPa)
ob: FNBG 221400Z 32008KT 9999 SCT020 BKN120 29/23 Q1012
cycle: 14

Station Type Date Time Source
FNBG TAF 2019/02/22 12:00 UTC NOAA

TAF FNBG 221100Z 2212/2224 32008KT 9999 SCT020 BKN030
TEMPO 2214/2218 36005KT FEW018 SCT025
BECMG 2220/2224 VRB02KT 7000 BKN020


Example: see airport list